Time;durP1;ratioP1;P1;durP2;ratioP2;P2;SDS_P1;SDS_P2;PMS_P1;PMS_P2;Temp;Humidity;BMP_temperature;BMP_pressure;BME280_temperature;BME280_humidity;BME280_pressure;Samples;Min_cycle;Max_cycle;Signal;HPM_P1;HPM_P2
2021/08/28 00:00:31;;;;;;;3.33;2.40;;;14.10;99.90;;;;;;5074839;28;20373;-79
2021/08/28 00:02:57;;;;;;;3.13;2.53;;;14.10;99.90;;;;;;5093256;28;20396;-79
2021/08/28 00:05:22;;;;;;;3.13;2.80;;;14.10;99.90;;;;;;5093205;28;20373;-78
2021/08/28 00:07:48;;;;;;;3.40;3.10;;;14.10;99.90;;;;;;5074969;28;21028;-79
2021/08/28 00:10:14;;;;;;;4.40;3.30;;;14.00;99.90;;;;;;5091667;28;20423;-80
2021/08/28 00:12:40;;;;;;;4.27;3.33;;;14.00;99.90;;;;;;5092332;28;20368;-81
2021/08/28 00:15:07;;;;;;;4.37;3.30;;;13.90;99.90;;;;;;5081457;28;20381;-79
2021/08/28 00:17:34;;;;;;;4.50;3.55;;;13.90;99.90;;;;;;5089398;28;20446;-82
2021/08/28 00:20:11;;;;;;;3.83;3.33;;;13.80;99.90;;;;;;5091881;28;20388;-80
2021/08/28 00:22:37;;;;;;;4.53;3.85;;;13.90;99.90;;;;;;5088868;28;20854;-80
2021/08/28 00:25:05;;;;;;;4.47;3.90;;;13.90;99.90;;;;;;5093437;28;20403;-78
2021/08/28 00:27:31;;;;;;;6.25;3.92;;;13.90;99.90;;;;;;5090917;28;20388;-79
2021/08/28 00:29:56;;;;;;;5.32;3.65;;;14.00;99.90;;;;;;5091907;28;20376;-79
2021/08/28 00:32:22;;;;;;;3.75;3.45;;;14.00;99.90;;;;;;5073954;28;20396;-79
2021/08/28 00:34:47;;;;;;;3.30;3.10;;;14.00;99.90;;;;;;5092362;28;20369;-79
2021/08/28 00:37:13;;;;;;;4.65;3.80;;;13.90;99.90;;;;;;5091529;28;20380;-78
2021/08/28 00:39:38;;;;;;;3.87;3.57;;;13.80;99.90;;;;;;5095956;28;20775;-78
2021/08/28 00:42:04;;;;;;;4.82;3.50;;;13.90;99.90;;;;;;5093305;28;20444;-80
2021/08/28 00:44:30;;;;;;;3.73;3.43;;;13.90;99.90;;;;;;5092569;28;20862;-80
2021/08/28 00:46:56;;;;;;;4.00;3.63;;;13.90;99.90;;;;;;5092918;28;20371;-80
2021/08/28 00:49:23;;;;;;;3.90;3.60;;;13.90;99.90;;;;;;5093064;28;20463;-78
2021/08/28 00:51:49;;;;;;;4.22;3.83;;;13.80;99.90;;;;;;5074790;28;20380;-79
2021/08/28 00:54:14;;;;;;;4.82;3.88;;;13.80;99.90;;;;;;5093378;28;20380;-78
2021/08/28 00:56:40;;;;;;;4.10;3.70;;;13.80;99.90;;;;;;5093072;28;20431;-80
2021/08/28 00:59:06;;;;;;;5.77;4.40;;;13.70;99.90;;;;;;5092005;28;20507;-78
2021/08/28 01:01:37;;;;;;;5.80;4.50;;;13.60;99.90;;;;;;5092933;28;20368;-81
2021/08/28 01:04:06;;;;;;;5.65;4.40;;;13.50;99.90;;;;;;5093045;28;20463;-77
2021/08/28 01:06:46;;;;;;;5.50;5.00;;;13.50;99.90;;;;;;5093128;28;20372;-79
2021/08/28 01:09:28;;;;;;;4.78;4.40;;;13.50;99.90;;;;;;5094041;28;21059;-79
2021/08/28 01:12:02;;;;;;;5.30;4.78;;;13.60;99.90;;;;;;5093938;28;20380;-77
2021/08/28 01:14:29;;;;;;;6.40;5.80;;;13.50;99.90;;;;;;5075442;28;20388;-79
2021/08/28 01:17:00;;;;;;;5.63;5.00;;;13.40;99.90;;;;;;5093489;28;20850;-77
2021/08/28 01:19:28;;;;;;;6.38;5.80;;;13.30;99.90;;;;;;5094043;28;20412;-79
2021/08/28 01:21:54;;;;;;;6.78;6.18;;;13.30;99.90;;;;;;5093619;28;20368;-79
2021/08/28 01:24:20;;;;;;;6.95;6.30;;;13.30;99.90;;;;;;5093141;28;20360;-78
2021/08/28 01:27:13;;;;;;;6.15;5.70;;;13.20;99.90;;;;;;5093050;28;20430;-78
2021/08/28 01:29:40;;;;;;;6.50;6.00;;;13.30;99.90;;;;;;5093116;28;20392;-79
2021/08/28 01:32:07;;;;;;;6.95;6.28;;;13.30;99.90;;;;;;5094831;28;20372;-79
2021/08/28 01:34:33;;;;;;;6.40;5.80;;;13.30;99.90;;;;;;5094306;28;20945;-78
2021/08/28 01:37:01;;;;;;;8.07;6.30;;;13.40;99.90;;;;;;5093586;28;20464;-78
2021/08/28 01:39:28;;;;;;;6.47;5.85;;;13.30;99.90;;;;;;5075086;28;20400;-79
2021/08/28 01:42:00;;;;;;;6.90;6.30;;;13.40;99.90;;;;;;5093110;28;20391;-80
2021/08/28 01:44:26;;;;;;;6.85;6.25;;;13.40;99.90;;;;;;5093302;28;20373;-80
2021/08/28 01:46:53;;;;;;;6.88;6.28;;;13.30;99.90;;;;;;5093658;28;20463;-80
2021/08/28 01:49:19;;;;;;;7.00;6.40;;;13.30;99.90;;;;;;5092977;28;20453;-78
2021/08/28 01:51:46;;;;;;;7.55;6.80;;;13.40;99.90;;;;;;5093021;28;20369;-78
2021/08/28 01:54:11;;;;;;;11.35;6.57;;;13.40;99.90;;;;;;5093539;28;20368;-80
2021/08/28 01:56:37;;;;;;;6.93;6.23;;;13.40;99.90;;;;;;5093359;28;21636;-77
2021/08/28 01:59:03;;;;;;;6.22;5.72;;;13.40;99.90;;;;;;5092341;28;20412;-79
2021/08/28 02:01:29;;;;;;;6.65;5.95;;;13.50;99.90;;;;;;5092768;28;20372;-79
2021/08/28 02:03:55;;;;;;;6.65;6.13;;;13.40;99.90;;;;;;5076470;28;20432;-80
2021/08/28 02:06:28;;;;;;;7.00;6.30;;;13.40;99.90;;;;;;5093110;28;20379;-80
2021/08/28 02:09:20;;;;;;;8.77;6.30;;;13.50;99.90;;;;;;5092420;28;20729;-81
2021/08/28 02:11:58;;;;;;;7.07;6.38;;;13.40;99.90;;;;;;5078512;28;20946;-80
2021/08/28 02:14:41;;;;;;;7.33;6.53;;;13.40;99.90;;;;;;5093011;28;20457;-80
2021/08/28 02:17:08;;;;;;;7.13;6.40;;;13.40;99.90;;;;;;5093021;28;20371;-79
2021/08/28 02:19:39;;;;;;;7.83;7.10;;;13.30;99.90;;;;;;5091631;28;20377;-78
2021/08/28 02:22:25;;;;;;;7.40;6.80;;;13.30;99.90;;;;;;5075486;28;20772;-82
2021/08/28 02:25:00;;;;;;;7.13;6.47;;;13.40;99.90;;;;;;5074915;28;20414;-81
2021/08/28 02:27:29;;;;;;;7.27;6.63;;;13.40;99.90;;;;;;5092818;28;20376;-78
2021/08/28 02:29:59;;;;;;;7.20;6.32;;;13.50;99.90;;;;;;5073181;28;20750;-77
2021/08/28 02:32:26;;;;;;;7.63;6.82;;;13.50;99.90;;;;;;5092129;28;20370;-79
2021/08/28 02:34:55;;;;;;;7.10;6.40;;;13.50;99.90;;;;;;5093176;28;20388;-79
2021/08/28 02:37:21;;;;;;;9.13;7.53;;;13.50;99.90;;;;;;5092723;28;20377;-80
2021/08/28 02:39:47;;;;;;;7.63;6.88;;;13.60;99.90;;;;;;5094807;28;20373;-77
2021/08/28 02:42:15;;;;;;;8.88;8.07;;;13.60;99.90;;;;;;5090193;28;20471;-80
2021/08/28 02:44:43;;;;;;;8.82;8.00;;;13.50;99.90;;;;;;5090567;28;20390;-80
2021/08/28 02:47:10;;;;;;;10.90;8.00;;;13.40;99.90;;;;;;5091303;28;20746;-82
2021/08/28 02:49:38;;;;;;;9.05;8.25;;;13.50;99.90;;;;;;5090432;28;20459;-80
2021/08/28 02:52:05;;;;;;;10.52;8.18;;;13.60;99.90;;;;;;5093840;28;20430;-79
2021/08/28 02:54:32;;;;;;;9.10;8.23;;;13.60;99.90;;;;;;5072616;28;20788;-77
2021/08/28 02:56:59;;;;;;;10.30;9.07;;;13.70;99.90;;;;;;5091053;28;20387;-81
2021/08/28 02:59:25;;;;;;;8.60;7.75;;;13.60;99.90;;;;;;5091181;28;20439;-79
2021/08/28 03:01:51;;;;;;;10.00;9.00;;;13.70;99.90;;;;;;5091361;28;20372;-80
2021/08/28 03:04:20;;;;;;;11.25;10.15;;;13.70;99.90;;;;;;5090050;28;20373;-79
2021/08/28 03:06:46;;;;;;;10.68;9.55;;;13.70;99.90;;;;;;5090379;28;20892;-81
2021/08/28 03:09:13;;;;;;;12.85;11.05;;;13.70;99.90;;;;;;5089807;28;21155;-81
2021/08/28 03:11:39;;;;;;;12.55;11.25;;;13.70;99.90;;;;;;5089907;28;20460;-79
2021/08/28 03:14:05;;;;;;;13.47;12.07;;;13.60;99.90;;;;;;5089750;28;20467;-80
2021/08/28 03:16:31;;;;;;;13.20;11.90;;;13.60;99.90;;;;;;5089935;28;20368;-77
2021/08/28 03:18:58;;;;;;;13.70;12.27;;;13.60;99.90;;;;;;5089597;28;20473;-76
2021/08/28 03:21:27;;;;;;;14.82;13.30;;;13.60;99.90;;;;;;5090363;28;20372;-78
2021/08/28 03:23:56;;;;;;;16.80;13.60;;;13.60;99.90;;;;;;5089755;28;20395;-81
2021/08/28 03:26:23;;;;;;;15.80;14.23;;;13.60;99.90;;;;;;5071581;28;20377;-81
2021/08/28 03:28:49;;;;;;;17.33;15.43;;;13.50;99.90;;;;;;5089284;28;20391;-77
2021/08/28 03:31:16;;;;;;;19.13;15.73;;;13.30;99.90;;;;;;5074483;28;20372;-80
2021/08/28 03:33:44;;;;;;;19.53;16.43;;;13.40;99.90;;;;;;5092670;28;20846;-80
2021/08/28 03:36:10;;;;;;;17.63;15.63;;;13.30;99.90;;;;;;5093680;28;20463;-79
2021/08/28 03:38:37;;;;;;;17.83;15.98;;;13.30;99.90;;;;;;5093435;28;20526;-77
2021/08/28 03:41:02;;;;;;;17.98;15.48;;;13.30;99.90;;;;;;5093790;28;20372;-78
2021/08/28 03:43:28;;;;;;;17.75;15.35;;;13.40;99.90;;;;;;5093684;28;20364;-78
2021/08/28 03:45:54;;;;;;;17.57;15.23;;;13.30;99.90;;;;;;5093376;28;20364;-79
2021/08/28 03:48:21;;;;;;;16.20;13.50;;;13.40;99.90;;;;;;5093689;28;20463;-78
2021/08/28 03:50:48;;;;;;;15.75;13.25;;;13.40;99.90;;;;;;5093521;28;20368;-79
2021/08/28 03:53:13;;;;;;;14.50;13.00;;;13.40;99.90;;;;;;5093182;28;20385;-81
2021/08/28 03:55:39;;;;;;;15.30;12.60;;;13.30;99.90;;;;;;5093445;28;20398;-80
2021/08/28 03:58:04;;;;;;;16.00;13.23;;;13.30;99.90;;;;;;5075209;28;20400;-80
2021/08/28 04:00:30;;;;;;;15.13;12.90;;;13.30;99.90;;;;;;5092987;28;20380;-78
2021/08/28 04:02:56;;;;;;;19.00;12.63;;;13.20;99.90;;;;;;5093151;28;21210;-80
2021/08/28 04:05:21;;;;;;;19.17;13.20;;;13.20;99.90;;;;;;5092740;28;20883;-79
2021/08/28 04:07:47;;;;;;;16.10;12.85;;;13.10;99.90;;;;;;5092727;28;20381;-79
2021/08/28 04:10:13;;;;;;;17.33;12.07;;;13.10;99.90;;;;;;5093461;28;20368;-79
2021/08/28 04:12:38;;;;;;;26.77;13.55;;;13.10;99.90;;;;;;5092731;28;20426;-79
2021/08/28 04:15:06;;;;;;;23.73;13.55;;;13.10;99.90;;;;;;5093181;28;20470;-77
2021/08/28 04:17:31;;;;;;;20.95;13.40;;;13.00;99.90;;;;;;5074319;28;20799;-78
2021/08/28 04:19:57;;;;;;;29.50;13.95;;;13.00;99.90;;;;;;5092082;28;20455;-78
2021/08/28 04:22:22;;;;;;;31.90;13.63;;;12.90;99.90;;;;;;5092807;28;20376;-78
2021/08/28 04:24:48;;;;;;;24.38;13.68;;;13.10;99.90;;;;;;5093913;28;20849;-78
2021/08/28 04:27:14;;;;;;;20.03;14.40;;;13.10;99.90;;;;;;5094422;28;20912;-81
2021/08/28 04:29:39;;;;;;;29.90;14.98;;;13.10;99.90;;;;;;5092310;28;20483;-77
2021/08/28 04:32:05;;;;;;;28.03;15.90;;;13.10;99.90;;;;;;5093518;28;20892;-79
2021/08/28 04:34:31;;;;;;;29.63;15.05;;;13.10;99.90;;;;;;5092762;28;20376;-79
2021/08/28 04:36:56;;;;;;;25.25;14.13;;;13.10;99.90;;;;;;5092494;28;20384;-78
2021/08/28 04:39:22;;;;;;;21.07;14.23;;;13.30;99.90;;;;;;5074665;28;20453;-79
2021/08/28 04:41:47;;;;;;;20.42;13.82;;;13.30;99.90;;;;;;5092129;28;20699;-78
2021/08/28 04:44:13;;;;;;;30.37;14.70;;;13.30;99.90;;;;;;5092427;28;20381;-80
2021/08/28 04:46:39;;;;;;;21.33;14.27;;;13.40;99.90;;;;;;5092993;28;20400;-79
2021/08/28 04:49:04;;;;;;;19.90;13.75;;;13.40;99.90;;;;;;5092414;28;20422;-77
2021/08/28 04:51:30;;;;;;;26.17;14.50;;;13.50;99.90;;;;;;5095297;28;20379;-80
2021/08/28 04:53:55;;;;;;;23.42;14.68;;;13.60;99.90;;;;;;5093498;28;20368;-77
2021/08/28 04:56:21;;;;;;;26.73;15.00;;;13.60;99.90;;;;;;5094887;28;20376;-79
2021/08/28 04:58:47;;;;;;;26.97;14.80;;;13.60;99.90;;;;;;5095780;28;20958;-80
2021/08/28 05:01:12;;;;;;;23.70;14.30;;;13.60;99.90;;;;;;5096202;28;20725;-81
2021/08/28 05:03:38;;;;;;;22.40;13.47;;;13.70;99.90;;;;;;5076938;28;20377;-79
2021/08/28 05:06:03;;;;;;;19.75;13.32;;;13.80;99.90;;;;;;5075766;28;20925;-79
2021/08/28 05:08:29;;;;;;;16.07;12.57;;;13.80;99.90;;;;;;5094632;28;20390;-79
2021/08/28 05:10:54;;;;;;;16.00;12.77;;;13.90;99.90;;;;;;5077476;28;20369;-78
2021/08/28 05:13:20;;;;;;;17.90;12.63;;;14.00;99.90;;;;;;5093499;28;21086;-80
2021/08/28 05:15:46;;;;;;;17.50;13.88;;;14.00;99.90;;;;;;5094320;28;20365;-80
2021/08/28 05:18:11;;;;;;;17.77;12.95;;;13.90;99.90;;;;;;5095585;28;20393;-78
2021/08/28 05:20:37;;;;;;;17.10;13.37;;;14.00;99.90;;;;;;5095037;28;20820;-78
2021/08/28 05:23:03;;;;;;;17.98;13.65;;;14.00;99.90;;;;;;5094002;28;20372;-79
2021/08/28 05:25:28;;;;;;;22.10;13.50;;;14.00;99.90;;;;;;5074237;28;20380;-80
2021/08/28 05:27:55;;;;;;;19.80;14.40;;;14.00;99.90;;;;;;5094831;28;20398;-77
2021/08/28 05:30:21;;;;;;;21.60;14.65;;;14.00;99.90;;;;;;5095088;28;20406;-81
2021/08/28 05:32:46;;;;;;;21.33;15.30;;;14.00;99.90;;;;;;5095797;28;20788;-80
2021/08/28 05:35:12;;;;;;;25.23;14.20;;;14.10;99.90;;;;;;5092662;28;20773;-77
2021/08/28 05:37:38;;;;;;;18.15;13.77;;;14.20;99.90;;;;;;5091704;28;20399;-81
2021/08/28 05:40:06;;;;;;;23.25;14.70;;;14.20;99.90;;;;;;5091571;28;20384;-79
2021/08/28 05:42:33;;;;;;;21.15;15.32;;;14.20;99.90;;;;;;5091878;28;20467;-80
2021/08/28 05:44:58;;;;;;;20.33;15.23;;;14.30;99.90;;;;;;5092723;28;20387;-80
2021/08/28 05:47:24;;;;;;;20.35;14.23;;;14.30;99.90;;;;;;5092926;28;20372;-77
2021/08/28 05:49:49;;;;;;;23.37;15.10;;;14.30;99.90;;;;;;5092414;28;20369;-79
2021/08/28 05:52:15;;;;;;;25.50;16.98;;;14.30;99.90;;;;;;5092099;28;20751;-77
2021/08/28 05:54:41;;;;;;;21.70;15.23;;;14.20;99.90;;;;;;5091415;28;20373;-78
2021/08/28 05:57:06;;;;;;;22.85;16.10;;;14.20;99.90;;;;;;5073906;28;20865;-80
2021/08/28 05:59:32;;;;;;;21.75;15.02;;;14.40;99.90;;;;;;5091846;28;20438;-76
2021/08/28 06:01:57;;;;;;;19.73;14.80;;;14.30;99.90;;;;;;5075611;28;20380;-78
2021/08/28 06:04:23;;;;;;;19.65;14.52;;;14.40;99.90;;;;;;5092181;28;20384;-77
2021/08/28 06:06:49;;;;;;;18.87;14.67;;;14.60;99.90;;;;;;5093250;28;20369;-76
2021/08/28 06:09:14;;;;;;;21.23;14.77;;;14.70;99.90;;;;;;5093885;28;20451;-78
2021/08/28 06:11:40;;;;;;;17.53;13.13;;;14.70;99.90;;;;;;5092276;28;20380;-79
2021/08/28 06:14:05;;;;;;;15.23;11.73;;;14.80;99.90;;;;;;5093022;28;20375;-79
2021/08/28 06:16:31;;;;;;;14.60;11.77;;;14.80;99.90;;;;;;5074665;28;20373;-80
2021/08/28 06:18:59;;;;;;;17.38;12.50;;;14.70;99.90;;;;;;5092046;28;20804;-80
2021/08/28 06:21:25;;;;;;;17.27;12.52;;;14.80;99.90;;;;;;5075000;28;20419;-80
2021/08/28 06:23:51;;;;;;;16.10;12.63;;;14.80;99.90;;;;;;5093397;28;20373;-76
2021/08/28 06:26:17;;;;;;;15.77;12.10;;;14.90;99.90;;;;;;5091829;28;20373;-77
2021/08/28 06:28:42;;;;;;;16.87;12.87;;;14.90;99.90;;;;;;5093021;28;20711;-77
2021/08/28 06:31:08;;;;;;;16.95;12.70;;;14.90;99.90;;;;;;5093302;28;20388;-77
2021/08/28 06:33:34;;;;;;;15.33;11.47;;;15.00;99.90;;;;;;5091404;28;20493;-78
2021/08/28 06:35:59;;;;;;;13.83;11.93;;;15.00;99.90;;;;;;5093409;28;20395;-78
2021/08/28 06:38:25;;;;;;;15.40;12.23;;;15.00;99.90;;;;;;5092547;28;20399;-79
2021/08/28 06:40:51;;;;;;;15.30;11.77;;;15.00;99.90;;;;;;5091826;28;20390;-79
2021/08/28 06:43:16;;;;;;;11.95;10.38;;;15.10;99.90;;;;;;5093622;28;20806;-79
2021/08/28 06:45:43;;;;;;;12.68;9.93;;;15.10;99.90;;;;;;5090476;28;20364;-79
2021/08/28 06:48:08;;;;;;;11.57;9.25;;;15.20;99.90;;;;;;5088547;28;20414;-77
2021/08/28 06:50:35;;;;;;;10.73;9.40;;;15.20;99.90;;;;;;5090595;28;20372;-80
2021/08/28 06:53:01;;;;;;;11.45;9.68;;;15.20;99.90;;;;;;5092453;28;20495;-77
2021/08/28 06:55:26;;;;;;;9.63;8.43;;;15.20;99.90;;;;;;5092833;28;20459;-77
2021/08/28 06:57:52;;;;;;;11.20;9.23;;;15.20;99.90;;;;;;5091625;28;20393;-78
2021/08/28 07:00:17;;;;;;;9.27;8.37;;;15.30;99.90;;;;;;5093061;28;20942;-79
2021/08/28 07:02:44;;;;;;;9.10;8.20;;;15.30;99.90;;;;;;5092857;28;20486;-78
2021/08/28 07:05:10;;;;;;;9.43;8.33;;;15.40;99.90;;;;;;5091557;28;20373;-80
2021/08/28 07:07:36;;;;;;;11.93;8.30;;;15.40;99.90;;;;;;5091847;28;20368;-78
2021/08/28 07:10:02;;;;;;;8.87;7.97;;;15.40;99.90;;;;;;5092448;28;20379;-77
2021/08/28 07:12:28;;;;;;;9.25;7.40;;;15.60;99.90;;;;;;5073199;28;20389;-80
2021/08/28 07:14:53;;;;;;;8.47;7.40;;;15.70;99.90;;;;;;5091198;28;20380;-78
2021/08/28 07:17:19;;;;;;;7.90;7.20;;;15.70;99.90;;;;;;5073326;28;20484;-77
2021/08/28 07:19:44;;;;;;;8.07;7.30;;;15.90;99.90;;;;;;5090455;28;20376;-77
2021/08/28 07:22:10;;;;;;;8.30;6.50;;;15.90;99.90;;;;;;5090607;28;20780;-80
2021/08/28 07:24:35;;;;;;;6.23;5.63;;;15.90;99.90;;;;;;5091175;28;20781;-77
2021/08/28 07:27:01;;;;;;;6.20;5.60;;;16.10;99.90;;;;;;5090781;28;20369;-79
2021/08/28 07:29:27;;;;;;;6.20;5.40;;;16.20;99.90;;;;;;5091785;28;20419;-77
2021/08/28 07:31:53;;;;;;;8.65;5.65;;;16.30;99.90;;;;;;5092784;28;20378;-80
2021/08/28 07:34:18;;;;;;;6.13;5.53;;;16.20;99.90;;;;;;5091609;28;20371;-77
2021/08/28 07:36:44;;;;;;;6.05;5.38;;;16.50;99.90;;;;;;5090710;28;20402;-77
2021/08/28 07:39:09;;;;;;;5.03;4.57;;;16.60;99.90;;;;;;5089568;28;20411;-79
2021/08/28 07:41:35;;;;;;;5.00;4.35;;;16.80;99.90;;;;;;5071518;28;20377;-78
2021/08/28 07:44:00;;;;;;;5.60;4.33;;;16.90;99.90;;;;;;5071654;28;20376;-79
2021/08/28 07:46:26;;;;;;;4.70;4.25;;;17.20;99.90;;;;;;5089439;28;20388;-82
2021/08/28 07:48:52;;;;;;;4.70;4.30;;;17.30;99.90;;;;;;5070575;28;20421;-82
2021/08/28 07:51:17;;;;;;;5.35;4.20;;;17.20;99.90;;;;;;5071597;28;20525;-81
2021/08/28 07:53:43;;;;;;;4.23;3.80;;;17.00;99.90;;;;;;5089181;28;20380;-80
2021/08/28 07:56:08;;;;;;;4.40;3.80;;;17.00;99.90;;;;;;5091590;28;20414;-79
2021/08/28 07:58:34;;;;;;;3.83;3.47;;;16.90;99.90;;;;;;5089719;28;20393;-81
2021/08/28 08:00:59;;;;;;;4.32;3.20;;;16.90;99.90;;;;;;5090385;28;20391;-79
2021/08/28 08:03:25;;;;;;;3.80;3.00;;;17.00;99.90;;;;;;5088995;28;20414;-81
2021/08/28 08:05:51;;;;;;;3.45;3.15;;;17.20;99.90;;;;;;5087362;28;20780;-81
2021/08/28 08:08:16;;;;;;;3.17;2.80;;;17.30;99.90;;;;;;5081806;28;20432;-79
2021/08/28 08:10:42;;;;;;;6.23;2.90;;;17.30;99.90;;;;;;5087123;28;20365;-80
2021/08/28 08:13:07;;;;;;;3.53;2.63;;;17.30;99.90;;;;;;5076393;28;20382;-77
2021/08/28 08:15:33;;;;;;;3.50;3.20;;;17.30;99.90;;;;;;5086202;28;20380;-78
2021/08/28 08:17:58;;;;;;;3.53;2.97;;;17.30;99.90;;;;;;5090028;28;20406;-77
2021/08/28 08:20:25;;;;;;;3.10;2.50;;;17.40;99.90;;;;;;5090781;28;20373;-82
2021/08/28 08:22:51;;;;;;;3.17;2.70;;;17.50;99.90;;;;;;5064413;28;20390;-80
2021/08/28 08:25:17;;;;;;;3.95;3.05;;;17.40;99.90;;;;;;5093046;28;20380;-77
2021/08/28 08:27:42;;;;;;;4.20;2.80;;;17.30;99.90;;;;;;5083183;28;20430;-80
2021/08/28 08:30:08;;;;;;;3.58;2.92;;;17.30;99.90;;;;;;5081778;28;20396;-79
2021/08/28 08:32:34;;;;;;;3.30;3.00;;;17.20;99.90;;;;;;5079465;28;20394;-81
2021/08/28 08:35:00;;;;;;;4.00;2.73;;;17.30;99.90;;;;;;5058798;28;20429;-79
2021/08/28 08:37:26;;;;;;;2.78;2.55;;;17.30;99.90;;;;;;5082173;28;20499;-79
2021/08/28 08:39:51;;;;;;;2.50;2.30;;;17.60;99.90;;;;;;5071329;28;20853;-81
2021/08/28 08:42:19;;;;;;;2.73;2.23;;;17.90;99.90;;;;;;5092321;28;20759;-78
2021/08/28 08:44:47;;;;;;;2.60;2.40;;;17.90;99.90;;;;;;5089507;28;20480;-79
2021/08/28 08:47:20;;;;;;;3.15;2.75;;;17.90;99.90;;;;;;5083985;28;20491;-82
2021/08/28 08:49:49;;;;;;;2.90;2.60;;;18.10;99.90;;;;;;5091616;28;20384;-81
2021/08/28 08:52:16;;;;;;;2.60;2.40;;;18.30;99.90;;;;;;5090759;28;20380;-81
2021/08/28 08:54:42;;;;;;;2.72;2.47;;;18.50;99.90;;;;;;5089896;28;20380;-81
2021/08/28 08:57:08;;;;;;;3.28;2.50;;;18.70;99.90;;;;;;5080748;28;20393;-82
2021/08/28 08:59:34;;;;;;;2.88;2.50;;;18.70;99.90;;;;;;5076241;28;20396;-81
2021/08/28 09:02:02;;;;;;;2.45;2.25;;;19.00;99.90;;;;;;5091620;28;20419;-79
2021/08/28 09:04:27;;;;;;;2.60;2.07;;;19.20;99.90;;;;;;5080498;28;20479;-81
2021/08/28 09:06:54;;;;;;;2.63;2.20;;;19.10;99.90;;;;;;5082724;28;20868;-78
2021/08/28 09:09:20;;;;;;;2.90;2.07;;;19.30;99.90;;;;;;5082090;28;20378;-79
2021/08/28 09:12:09;;;;;;;3.07;2.20;;;19.40;99.90;;;;;;5082646;28;20393;-80
2021/08/28 09:14:35;;;;;;;3.28;2.53;;;19.30;99.90;;;;;;5087381;28;20388;-79
2021/08/28 09:17:18;;;;;;;3.55;2.47;;;19.10;99.90;;;;;;5089269;28;20450;-77
2021/08/28 09:19:46;;;;;;;2.38;2.17;;;19.20;99.90;;;;;;5068480;28;20412;-82
2021/08/28 09:22:33;;;;;;;3.33;2.70;;;19.10;99.90;;;;;;5088452;28;20889;-80
2021/08/28 09:25:04;;;;;;;2.55;2.30;;;18.70;99.90;;;;;;5088019;28;20381;-85
2021/08/28 09:27:42;;;;;;;2.30;2.10;;;18.60;99.90;;;;;;5088910;28;20380;-81
2021/08/28 09:30:20;;;;;;;2.50;2.30;;;18.40;99.90;;;;;;5055278;28;20392;-80
2021/08/28 09:32:55;;;;;;;2.40;2.20;;;18.50;99.90;;;;;;5088943;28;20787;-80
2021/08/28 09:35:28;;;;;;;2.47;2.27;;;18.60;99.90;;;;;;5059902;28;20517;-78
2021/08/28 09:38:25;;;;;;;2.42;2.08;;;18.70;99.90;;;;;;5085612;28;20411;-79
2021/08/28 09:40:55;;;;;;;2.40;2.15;;;19.00;99.90;;;;;;5076819;28;20405;-80
2021/08/28 09:43:23;;;;;;;2.78;2.38;;;19.70;99.90;;;;;;5085153;28;20454;-77
2021/08/28 09:45:53;;;;;;;2.38;2.17;;;19.70;99.90;;;;;;5086717;28;20377;-83
2021/08/28 09:48:24;;;;;;;2.80;2.30;;;19.70;99.90;;;;;;5088116;28;20782;-81
2021/08/28 09:50:51;;;;;;;2.85;2.00;;;19.70;99.90;;;;;;5085184;28;20379;-81
2021/08/28 09:53:28;;;;;;;2.42;2.22;;;19.70;99.90;;;;;;5088087;28;20389;-82
2021/08/28 09:55:56;;;;;;;2.13;1.92;;;19.80;99.90;;;;;;5088446;28;20376;-78
2021/08/28 09:58:26;;;;;;;2.30;2.10;;;19.80;99.90;;;;;;5088054;28;20406;-79
2021/08/28 10:00:52;;;;;;;2.45;2.13;;;19.90;99.90;;;;;;5085879;28;20412;-82
2021/08/28 10:03:26;;;;;;;2.27;2.00;;;19.90;99.90;;;;;;5069495;28;20435;-79
2021/08/28 10:05:53;;;;;;;2.20;2.00;;;20.00;99.90;;;;;;5067535;28;20888;-79
2021/08/28 10:08:20;;;;;;;2.45;1.95;;;20.40;99.90;;;;;;5069904;28;20385;-82
2021/08/28 10:10:46;;;;;;;2.00;1.73;;;20.90;99.90;;;;;;5076707;28;20405;-80
2021/08/28 10:13:12;;;;;;;2.75;2.00;;;21.20;99.90;;;;;;5053707;28;20386;-82
2021/08/28 10:15:38;;;;;;;1.83;1.65;;;21.30;99.90;;;;;;5073267;28;20398;-78
2021/08/28 10:18:05;;;;;;;2.47;1.90;;;21.40;99.90;;;;;;5075652;28;20398;-78
2021/08/28 10:20:32;;;;;;;2.78;1.90;;;21.20;99.90;;;;;;5080972;28;20372;-78
2021/08/28 10:23:03;;;;;;;2.10;1.80;;;21.10;99.90;;;;;;5074904;28;20454;-81
2021/08/28 10:25:31;;;;;;;2.28;1.77;;;21.30;99.90;;;;;;5054496;28;20394;-79
2021/08/28 10:27:57;;;;;;;2.25;1.75;;;21.30;99.90;;;;;;5070298;28;20456;-82
2021/08/28 10:30:25;;;;;;;1.90;1.40;;;21.50;99.90;;;;;;5059424;28;20733;-81
2021/08/28 10:32:52;;;;;;;2.10;1.90;;;21.50;99.90;;;;;;5073692;28;20373;-80
2021/08/28 10:35:19;;;;;;;2.78;1.73;;;21.50;99.90;;;;;;5086545;28;20471;-80
2021/08/28 10:37:46;;;;;;;2.00;1.80;;;21.40;99.90;;;;;;5087747;28;20475;-80
2021/08/28 10:40:19;;;;;;;1.80;1.70;;;21.40;99.90;;;;;;5063889;28;21606;-82
2021/08/28 10:42:46;;;;;;;3.42;1.90;;;21.60;99.90;;;;;;5067272;28;20899;-80
2021/08/28 10:45:12;;;;;;;4.50;1.70;;;21.70;99.90;;;;;;5087668;28;20408;-79
2021/08/28 10:47:38;;;;;;;2.23;1.80;;;22.10;99.90;;;;;;5078918;28;20415;-80
2021/08/28 10:50:10;;;;;;;2.00;1.80;;;22.20;99.90;;;;;;5086050;28;20392;-81
2021/08/28 10:52:39;;;;;;;3.03;1.80;;;22.40;99.90;;;;;;5086177;28;20704;-78
2021/08/28 10:55:13;;;;;;;2.13;1.80;;;22.80;99.90;;;;;;5086236;28;20376;-79
2021/08/28 10:57:39;;;;;;;2.00;1.77;;;22.90;99.90;;;;;;5067622;28;20676;-81
2021/08/28 11:00:07;;;;;;;3.33;1.85;;;22.60;99.90;;;;;;5086390;28;20438;-81
2021/08/28 11:02:54;;;;;;;1.92;1.67;;;22.30;99.90;;;;;;5086878;28;20433;-80
2021/08/28 11:05:27;;;;;;;2.22;1.92;;;22.40;99.90;;;;;;5083293;28;20379;-81
2021/08/28 11:07:54;;;;;;;2.20;1.85;;;22.20;99.90;;;;;;5079098;28;20386;-80
2021/08/28 11:10:28;;;;;;;1.88;1.60;;;21.80;99.90;;;;;;5073256;28;21590;-82
2021/08/28 11:12:59;;;;;;;1.90;1.80;;;21.40;99.90;;;;;;5086217;28;20388;-80
2021/08/28 11:15:24;;;;;;;2.08;1.80;;;21.20;99.90;;;;;;5086330;28;20387;-79
2021/08/28 11:18:02;;;;;;;2.83;1.83;;;21.00;99.90;;;;;;5086642;28;20754;-81
2021/08/28 11:20:38;;;;;;;3.15;1.75;;;21.00;99.90;;;;;;5085508;28;20395;-78
2021/08/28 11:23:11;;;;;;;2.22;1.98;;;21.10;99.90;;;;;;5067501;28;20388;-80
2021/08/28 11:25:46;;;;;;;2.08;1.88;;;21.40;99.90;;;;;;5083497;28;20390;-79
2021/08/28 11:28:12;;;;;;;2.13;1.80;;;21.60;99.90;;;;;;5065298;28;20867;-81
2021/08/28 11:30:44;;;;;;;2.17;1.90;;;21.50;99.90;;;;;;5087459;28;20380;-80
2021/08/28 11:33:16;;;;;;;2.07;1.70;;;21.60;99.90;;;;;;5087885;28;20418;-82
2021/08/28 11:35:48;;;;;;;2.20;1.70;;;21.80;99.90;;;;;;5076767;28;20842;-80
2021/08/28 11:38:13;;;;;;;2.20;1.73;;;22.10;99.90;;;;;;5085618;28;20871;-77
2021/08/28 11:40:40;;;;;;;2.47;1.77;;;22.20;99.90;;;;;;5087794;28;20377;-81
2021/08/28 11:43:09;;;;;;;4.68;1.90;;;22.60;99.90;;;;;;5087630;28;20384;-80
2021/08/28 11:45:39;;;;;;;1.95;1.75;;;22.80;99.90;;;;;;5078239;28;20376;-80
2021/08/28 11:48:13;;;;;;;1.77;1.38;;;23.00;99.90;;;;;;5076308;28;20397;-80
2021/08/28 11:50:40;;;;;;;2.42;1.75;;;22.90;99.90;;;;;;5083091;28;20388;-79
2021/08/28 11:53:06;;;;;;;2.30;1.90;;;23.00;99.90;;;;;;5080761;28;20409;-81
2021/08/28 11:55:35;;;;;;;2.42;1.92;;;22.90;99.90;;;;;;5064312;28;20369;-80
2021/08/28 11:58:03;;;;;;;2.03;1.70;;;22.80;99.90;;;;;;5066275;28;20465;-81
2021/08/28 12:00:31;;;;;;;3.42;1.80;;;22.50;99.90;;;;;;5067370;28;20873;-82
2021/08/28 12:02:58;;;;;;;3.25;1.90;;;22.40;99.90;;;;;;5072282;28;20502;-80
2021/08/28 12:05:24;;;;;;;2.47;2.03;;;22.20;99.90;;;;;;5091888;28;20376;-80
2021/08/28 12:07:54;;;;;;;3.42;2.05;;;22.20;99.90;;;;;;5073677;28;20547;-81
2021/08/28 12:10:21;;;;;;;2.00;1.80;;;22.20;99.90;;;;;;5090313;28;20419;-79
2021/08/28 12:13:01;;;;;;;2.13;1.88;;;22.30;99.90;;;;;;5081141;28;20370;-80
2021/08/28 12:15:28;;;;;;;3.85;2.10;;;22.30;99.90;;;;;;5072249;28;20415;-78
2021/08/28 12:17:55;;;;;;;2.80;1.90;;;22.40;99.90;;;;;;5089868;28;20698;-80
2021/08/28 12:20:31;;;;;;;2.27;1.93;;;22.40;99.90;;;;;;5093423;28;20364;-81
2021/08/28 12:23:00;;;;;;;1.70;1.52;;;22.50;99.90;;;;;;5091328;28;20914;-81
2021/08/28 12:25:27;;;;;;;1.80;1.70;;;22.60;99.90;;;;;;5092726;28;20415;-78
2021/08/28 12:27:53;;;;;;;1.80;1.70;;;22.60;99.90;;;;;;5092091;28;20384;-80
2021/08/28 12:30:20;;;;;;;2.30;2.00;;;22.50;99.90;;;;;;5091770;28;20438;-81
2021/08/28 12:32:46;;;;;;;2.40;2.08;;;22.50;99.90;;;;;;5083760;28;20368;-81
2021/08/28 12:35:12;;;;;;;3.20;1.90;;;22.50;99.90;;;;;;5081393;28;20950;-78
2021/08/28 12:37:38;;;;;;;3.08;2.05;;;22.40;99.90;;;;;;5080566;28;20364;-80
2021/08/28 12:40:13;;;;;;;2.67;2.05;;;22.60;99.90;;;;;;5090585;28;20360;-81
2021/08/28 12:42:41;;;;;;;2.22;2.00;;;22.60;99.90;;;;;;5089893;28;20387;-79